Time;durP1;ratioP1;P1;durP2;ratioP2;P2;SDS_P1;SDS_P2;PMS_P1;PMS_P2;Temp;Humidity;BMP_temperature;BMP_pressure;BME280_temperature;BME280_humidity;BME280_pressure;Samples;Min_cycle;Max_cycle;Signal;HPM_P1;HPM_P2
2021/03/13 00:00:54;;;;;;;60.70;29.77;;;;;;;0.87;69.58;98273.94;124089;1102;64879;-82
2021/03/13 00:03:20;;;;;;;55.53;26.33;;;;;;;0.90;69.61;98272.97;124034;1102;64838;-84
2021/03/13 00:05:47;;;;;;;53.10;26.23;;;;;;;0.95;69.16;98261.38;124028;1102;64899;-84
2021/03/13 00:08:14;;;;;;;56.27;25.37;;;;;;;0.97;69.04;98269.16;123643;1102;64921;-81
2021/03/13 00:10:43;;;;;;;51.30;24.90;;;;;;;1.01;69.36;98268.14;123625;1105;65070;-81
2021/03/13 00:13:10;;;;;;;56.93;26.30;;;;;;;1.03;69.29;98268.94;124040;1102;64966;-83
2021/03/13 00:15:39;;;;;;;54.23;25.43;;;;;;;1.03;69.33;98263.70;123663;1102;64990;-84
2021/03/13 00:18:05;;;;;;;51.10;21.97;;;;;;;1.05;69.39;98269.71;123723;1102;64959;-83
2021/03/13 00:20:35;;;;;;;51.80;23.53;;;;;;;1.07;69.28;98257.39;124025;1102;64892;-84
2021/03/13 00:23:02;;;;;;;;;;;;;;;1.09;69.94;98259.03;124075;1102;64902;-83
2021/03/13 00:25:30;;;;;;;43.77;20.20;;;;;;;1.13;69.27;98256.28;124061;1102;64930;-84
2021/03/13 00:27:56;;;;;;;45.07;20.60;;;;;;;1.14;69.60;98255.39;123659;1101;64901;-83
2021/03/13 00:30:26;;;;;;;44.80;20.53;;;;;;;1.12;69.30;98257.21;124019;1102;64937;-83
2021/03/13 00:33:11;;;;;;;46.33;19.70;;;;;;;1.09;69.52;98259.03;123745;1102;64930;-84
2021/03/13 00:35:39;;;;;;;50.40;23.70;;;;;;;1.07;69.10;98263.48;123711;1102;64895;-83
2021/03/13 00:38:06;;;;;;;47.37;25.67;;;;;;;1.04;69.40;98268.86;123683;1102;64894;-83
2021/03/13 00:40:34;;;;;;;48.43;25.97;;;;;;;1.01;69.46;98262.89;124054;1102;64908;-82
2021/03/13 00:43:04;;;;;;;43.07;23.63;;;;;;;0.97;69.05;98262.14;124143;1102;64883;-84
2021/03/13 00:45:31;;;;;;;50.05;26.60;;;;;;;0.94;69.02;98257.02;123585;1101;64847;-83
2021/03/13 00:47:58;;;;;;;56.60;25.83;;;;;;;0.93;69.29;98255.33;123841;1102;64940;-83
2021/03/13 00:50:28;;;;;;;52.47;25.23;;;;;;;0.92;69.31;98258.84;123484;1102;64914;-83
2021/03/13 00:52:55;;;;;;;48.78;26.17;;;;;;;0.92;69.76;98258.84;123763;1102;64905;-83
2021/03/13 00:55:21;;;;;;;54.20;26.70;;;;;;;0.90;69.84;98260.70;123863;1102;64937;-83
2021/03/13 00:57:49;;;;;;;47.83;25.03;;;;;;;0.87;69.34;98255.58;123714;1102;64928;-83
2021/03/13 01:00:19;;;;;;;55.40;26.53;;;;;;;0.85;69.67;98254.78;123744;1102;64940;-84
2021/03/13 01:02:46;;;;;;;;;;;;;;;0.87;69.89;98245.09;123868;1102;65375;-84
2021/03/13 01:05:15;;;;;;;52.17;26.20;;;;;;;0.90;69.57;98246.73;124028;1102;64914;-84
2021/03/13 01:07:41;;;;;;;44.97;22.10;;;;;;;0.92;69.31;98245.73;123863;1102;64902;-83
2021/03/13 01:10:27;;;;;;;48.17;26.13;;;;;;;0.98;69.31;98234.16;123496;1105;65023;-86
2021/03/13 01:12:54;;;;;;;56.47;29.27;;;;;;;1.00;69.27;98235.81;123893;1102;64921;-82
2021/03/13 01:15:23;;;;;;;55.40;29.60;;;;;;;0.99;69.38;98234.08;123461;1102;64984;-83
2021/03/13 01:17:50;;;;;;;59.33;29.92;;;;;;;0.92;69.86;98234.39;123447;1102;64885;-83
2021/03/13 01:20:18;;;;;;;51.37;26.43;;;;;;;0.88;70.30;98228.42;123809;1102;64846;-83
2021/03/13 01:22:45;;;;;;;46.40;24.43;;;;;;;0.82;70.41;98228.68;123402;1102;65055;-83
2021/03/13 01:25:13;;;;;;;44.13;22.97;;;;;;;0.79;70.36;98218.28;123491;1102;64985;-84
2021/03/13 01:27:41;;;;;;;53.63;28.00;;;;;;;0.76;69.89;98221.03;123401;1102;65014;-84
2021/03/13 01:30:10;;;;;;;52.10;28.27;;;;;;;0.65;70.49;98222.31;123512;1102;64889;-83
2021/03/13 01:32:37;;;;;;;50.00;26.00;;;;;;;0.56;70.77;98233.17;123855;1102;64911;-82
2021/03/13 01:35:04;;;;;;;169.00;62.77;;;;;;;0.43;70.27;98234.56;123811;1101;65049;-83
2021/03/13 01:37:30;;;;;;;152.77;56.80;;;;;;;0.29;70.72;98244.69;123467;1102;64905;-82
2021/03/13 01:39:56;;;;;;;181.87;66.30;;;;;;;0.20;70.76;98246.75;123839;1102;64978;-83
2021/03/13 01:42:23;;;;;;;129.83;47.77;;;;;;;0.18;70.70;98234.61;123864;1102;64943;-83
2021/03/13 01:44:49;;;;;;;105.70;43.27;;;;;;;0.16;71.48;98233.84;123835;1102;64857;-82
2021/03/13 01:47:23;;;;;;;108.73;43.50;;;;;;;0.12;71.44;98235.70;123841;1101;65351;-82
2021/03/13 01:49:51;;;;;;;65.90;31.90;;;;;;;0.04;71.30;98232.52;123478;1103;64952;-82
2021/03/13 01:52:19;;;;;;;78.67;35.60;;;;;;;-0.01;71.13;98221.34;123852;1102;64896;-82
2021/03/13 01:54:47;;;;;;;96.43;39.10;;;;;;;-0.08;72.07;98225.97;123523;1102;65460;-83
2021/03/13 01:57:18;;;;;;;147.23;59.27;;;;;;;-0.14;72.20;98226.17;123776;1102;64937;-83
2021/03/13 01:59:46;;;;;;;123.07;51.93;;;;;;;-0.15;71.78;98232.33;123860;1102;64905;-84
2021/03/13 02:02:15;;;;;;;118.63;50.83;;;;;;;-0.14;71.65;98227.94;123489;1102;64966;-84
2021/03/13 02:04:42;;;;;;;68.73;35.90;;;;;;;-0.13;72.57;98219.16;123472;1103;64908;-83
2021/03/13 02:07:17;;;;;;;114.73;50.80;;;;;;;-0.11;72.31;98219.97;123438;1102;64889;-83
2021/03/13 02:10:12;;;;;;;100.40;46.07;;;;;;;-0.11;72.50;98214.73;123442;1105;65077;-83
2021/03/13 02:13:11;;;;;;;95.17;42.70;;;;;;;-0.15;72.07;98216.63;123915;1102;65010;-83
2021/03/13 02:16:00;;;;;;;94.15;44.70;;;;;;;-0.16;72.24;98203.57;123845;1102;64989;-82
2021/03/13 02:18:55;;;;;;;72.27;37.27;;;;;;;-0.16;72.19;98198.33;123858;1101;64844;-82
2021/03/13 02:21:33;;;;;;;101.90;45.53;;;;;;;-0.18;72.59;98198.41;123838;1102;65323;-82
2021/03/13 02:24:05;;;;;;;113.25;46.55;;;;;;;-0.25;72.64;98195.14;123815;1102;64861;-82
2021/03/13 02:27:03;;;;;;;109.43;46.80;;;;;;;-0.29;71.99;98190.06;123825;1102;65337;-82
2021/03/13 02:29:45;;;;;;;81.20;39.27;;;;;;;-0.28;73.17;98186.55;123840;1101;64954;-81
2021/03/13 02:32:22;;;;;;;66.00;33.85;;;;;;;-0.28;72.91;98181.32;123802;1102;64895;-82
2021/03/13 02:34:56;;;;;;;57.53;29.53;;;;;;;-0.29;73.01;98174.36;123819;1102;64888;-82
2021/03/13 02:37:27;;;;;;;59.63;31.70;;;;;;;-0.26;72.69;98174.27;123847;1102;64892;-84
2021/03/13 02:39:56;;;;;;;49.23;27.63;;;;;;;-0.26;73.20;98167.27;123819;1102;64995;-81
2021/03/13 02:42:23;;;;;;;45.07;25.43;;;;;;;-0.26;72.66;98154.17;123753;1102;64910;-82
2021/03/13 02:44:52;;;;;;;38.30;22.70;;;;;;;-0.21;73.10;98159.25;123805;1102;64873;-82
2021/03/13 02:47:19;;;;;;;52.73;25.93;;;;;;;-0.17;72.98;98157.36;123746;1102;64883;-82
2021/03/13 02:49:49;;;;;;;40.23;23.30;;;;;;;-0.18;73.49;98166.98;123814;1101;64902;-81
2021/03/13 02:52:18;;;;;;;44.67;27.23;;;;;;;-0.21;73.24;98167.10;123505;1102;64985;-83
2021/03/13 02:54:47;;;;;;;47.55;27.15;;;;;;;-0.30;73.37;98163.03;123879;1102;64950;-81
2021/03/13 02:57:19;;;;;;;48.10;28.17;;;;;;;-0.34;72.74;98165.81;123809;1102;64914;-83
2021/03/13 02:59:47;;;;;;;54.37;28.97;;;;;;;-0.39;73.25;98163.38;123829;1102;66094;-81
2021/03/13 03:02:16;;;;;;;57.30;32.30;;;;;;;-0.40;73.79;98163.43;123485;1102;64991;-84
2021/03/13 03:04:43;;;;;;;61.97;32.83;;;;;;;-0.40;73.29;98163.43;123462;1102;65064;-84
2021/03/13 03:07:12;;;;;;;66.15;34.95;;;;;;;-0.39;73.08;98165.16;123438;1102;64975;-84
2021/03/13 03:09:40;;;;;;;49.77;28.90;;;;;;;-0.38;73.09;98165.08;123857;1102;65269;-83
2021/03/13 03:12:08;;;;;;;57.87;31.40;;;;;;;-0.36;73.25;98160.65;123804;1102;64908;-84
2021/03/13 03:14:34;;;;;;;62.90;35.63;;;;;;;-0.33;74.01;98159.69;123856;1102;64892;-84
2021/03/13 03:17:04;;;;;;;39.97;25.40;;;;;;;-0.32;73.60;98141.28;123437;1102;65535;-84
2021/03/13 03:19:33;;;;;;;43.63;26.33;;;;;;;-0.26;73.75;98140.23;123832;1102;64888;-84
2021/03/13 03:22:00;;;;;;;51.43;28.83;;;;;;;-0.19;74.04;98141.69;123514;1102;65311;-84
2021/03/13 03:24:29;;;;;;;54.87;32.40;;;;;;;-0.15;74.08;98137.22;123808;1102;64920;-84
2021/03/13 03:26:58;;;;;;;48.07;30.27;;;;;;;-0.17;73.53;98139.88;123896;1101;64908;-84
2021/03/13 03:29:25;;;;;;;56.70;31.67;;;;;;;-0.12;73.50;98134.47;123923;1101;65131;-84
2021/03/13 03:31:52;;;;;;;53.57;32.47;;;;;;;-0.08;73.86;98136.93;123498;1105;64921;-84
2021/03/13 03:34:19;;;;;;;47.20;28.00;;;;;;;-0.13;74.14;98133.63;123819;1102;64988;-83
2021/03/13 03:36:45;;;;;;;43.30;26.77;;;;;;;-0.14;73.33;98136.29;123461;1106;64889;-83
2021/03/13 03:39:13;;;;;;;38.23;26.17;;;;;;;-0.13;73.71;98141.48;123806;1102;64841;-84
2021/03/13 03:41:44;;;;;;;38.27;25.20;;;;;;;-0.10;74.11;98130.04;123814;1102;64838;-82
2021/03/13 03:44:15;;;;;;;32.80;22.53;;;;;;;-0.07;73.59;98122.91;123532;1105;64926;-84
2021/03/13 03:46:42;;;;;;;41.75;24.10;;;;;;;-0.03;73.43;98116.66;123834;1102;64876;-84
2021/03/13 03:49:12;;;;;;;38.60;22.83;;;;;;;-0.03;73.39;98114.03;123833;1102;64895;-84
2021/03/13 03:51:40;;;;;;;29.37;19.67;;;;;;;0.02;73.61;98105.13;123898;1102;64943;-83
2021/03/13 03:54:11;;;;;;;28.93;20.50;;;;;;;0.04;74.01;98090.22;123875;1102;64841;-84
2021/03/13 03:56:43;;;;;;;25.17;14.50;;;;;;;0.07;73.40;98090.09;123864;1102;64937;-83
2021/03/13 03:59:13;;;;;;;12.13;8.10;;;;;;;0.16;74.19;98084.50;123846;1102;64905;-85
2021/03/13 04:01:44;;;;;;;12.10;7.75;;;;;;;0.27;74.08;98077.06;123457;1102;65011;-86
2021/03/13 04:04:12;;;;;;;10.23;6.37;;;;;;;0.38;73.27;98072.23;123832;1101;64937;-84
2021/03/13 04:06:39;;;;;;;7.73;5.57;;;;;;;0.47;73.33;98078.86;123794;1102;64888;-84
2021/03/13 04:09:07;;;;;;;6.50;3.50;;;;;;;0.60;73.87;98076.59;123498;1102;64931;-84
2021/03/13 04:11:36;;;;;;;7.10;4.10;;;;;;;0.80;73.35;98083.63;123560;1102;64934;-83
2021/03/13 04:14:03;;;;;;;6.40;3.70;;;;;;;1.00;73.52;98085.39;123866;1102;64910;-83
2021/03/13 04:16:31;;;;;;;5.70;2.80;;;;;;;1.16;72.69;98086.45;123537;1102;65350;-83
2021/03/13 04:18:59;;;;;;;6.57;3.20;;;;;;;1.34;72.46;98079.52;123835;1102;64937;-84
2021/03/13 04:21:27;;;;;;;4.47;3.00;;;;;;;1.45;72.28;98077.30;123474;1101;64997;-83
2021/03/13 04:23:55;;;;;;;7.17;4.13;;;;;;;1.61;72.57;98076.61;123494;1102;64987;-83
2021/03/13 04:26:22;;;;;;;6.07;4.00;;;;;;;1.70;72.10;98074.39;123449;1102;64995;-82
2021/03/13 04:28:50;;;;;;;8.10;3.73;;;;;;;1.77;72.15;98074.13;123438;1102;64828;-84
2021/03/13 04:31:20;;;;;;;7.05;4.00;;;;;;;1.80;71.90;98066.95;123390;1105;65045;-84
2021/03/13 04:33:49;;;;;;;8.63;4.13;;;;;;;1.88;71.21;98074.47;123426;1102;64969;-83
2021/03/13 04:36:17;;;;;;;6.67;4.80;;;;;;;1.90;71.17;98068.23;123868;1102;64911;-84
2021/03/13 04:38:45;;;;;;;10.10;5.00;;;;;;;1.93;71.00;98067.23;123404;1105;64927;-82
2021/03/13 04:41:12;;;;;;;8.67;5.33;;;;;;;1.95;71.35;98060.98;123501;1102;64841;-82
2021/03/13 04:43:40;;;;;;;13.87;5.70;;;;;;;1.97;71.17;98061.77;123861;1102;64910;-82
2021/03/13 04:46:07;;;;;;;11.97;5.43;;;;;;;1.97;71.04;98067.02;123892;1101;65010;-83
2021/03/13 04:48:34;;;;;;;8.97;5.57;;;;;;;1.97;71.24;98060.89;123453;1102;64888;-83
2021/03/13 04:51:04;;;;;;;10.00;5.10;;;;;;;1.97;70.65;98056.52;123502;1102;66236;-82
2021/03/13 04:53:31;;;;;;;10.20;4.20;;;;;;;2.02;71.18;98061.53;123880;1102;64882;-82
2021/03/13 04:55:58;;;;;;;8.60;3.80;;;;;;;2.09;70.41;98052.44;123428;1102;64905;-82
2021/03/13 04:58:24;;;;;;;6.50;2.90;;;;;;;2.21;70.21;98058.87;123547;1102;65019;-81
2021/03/13 05:00:52;;;;;;;7.80;2.73;;;;;;;2.31;70.19;98051.40;123508;1104;64914;-80
2021/03/13 05:03:19;;;;;;;6.60;2.60;;;;;;;2.38;70.43;98047.55;123803;1102;64937;-82
2021/03/13 05:05:45;;;;;;;6.40;2.80;;;;;;;2.54;70.45;98045.02;123831;1102;64889;-83
2021/03/13 05:08:12;;;;;;;7.03;3.57;;;;;;;2.68;69.61;98044.31;123845;1102;64969;-83
2021/03/13 05:10:39;;;;;;;5.40;2.95;;;;;;;2.80;70.08;98041.08;123851;1102;64960;-81
2021/03/13 05:13:05;;;;;;;4.95;2.85;;;;;;;2.87;69.15;98029.32;123516;1102;64991;-82
2021/03/13 05:15:32;;;;;;;6.70;2.93;;;;;;;2.94;69.17;98032.47;123472;1102;64959;-83
2021/03/13 05:17:58;;;;;;;6.30;3.10;;;;;;;3.02;69.75;98044.30;123838;1102;64959;-83
2021/03/13 05:20:24;;;;;;;5.07;2.97;;;;;;;3.16;68.68;98038.34;123569;1102;64972;-83
2021/03/13 05:22:51;;;;;;;5.77;3.33;;;;;;;3.33;68.68;98045.34;123476;1102;65370;-84
2021/03/13 05:25:19;;;;;;;7.77;3.90;;;;;;;3.54;68.20;98045.98;123509;1102;64841;-84
2021/03/13 05:27:45;;;;;;;11.27;5.23;;;;;;;3.77;68.15;98038.62;123804;1102;64860;-84
2021/03/13 05:30:12;;;;;;;9.27;3.83;;;;;;;3.95;67.92;98029.70;123483;1102;64989;-83
2021/03/13 05:32:39;;;;;;;7.13;3.20;;;;;;;4.12;67.43;98040.14;123789;1102;64984;-83
2021/03/13 05:35:08;;;;;;;8.73;3.63;;;;;;;4.28;67.52;98034.00;123805;1102;65212;-83
2021/03/13 05:37:36;;;;;;;10.63;4.37;;;;;;;4.44;66.93;98033.98;123522;1102;64894;-83
2021/03/13 05:40:04;;;;;;;7.53;3.90;;;;;;;4.59;66.57;98039.22;123870;1102;65337;-83
2021/03/13 05:42:32;;;;;;;7.20;4.00;;;;;;;4.75;66.22;98038.33;123449;1102;64885;-85
2021/03/13 05:44:58;;;;;;;7.70;4.20;;;;;;;4.93;65.81;98044.32;123383;1104;65043;-83
2021/03/13 05:47:26;;;;;;;9.63;4.07;;;;;;;5.08;64.80;98050.46;123398;1103;64889;-84
2021/03/13 05:50:02;;;;;;;8.75;4.10;;;;;;;5.20;65.25;98055.02;123420;1102;64940;-83
2021/03/13 05:52:33;;;;;;;8.20;3.83;;;;;;;5.23;65.35;98060.11;123456;1102;64837;-83
2021/03/13 05:55:00;;;;;;;9.77;4.17;;;;;;;5.28;64.70;98064.17;123406;1102;65221;-83
2021/03/13 05:57:26;;;;;;;8.97;4.17;;;;;;;5.33;64.12;98076.27;123427;1102;65017;-84
2021/03/13 05:59:53;;;;;;;7.57;4.07;;;;;;;5.37;64.19;98072.48;123452;1102;64979;-83
2021/03/13 06:02:20;;;;;;;7.70;4.53;;;;;;;5.39;64.45;98071.44;123471;1102;65010;-83
2021/03/13 06:04:50;;;;;;;14.45;5.40;;;;;;;5.41;63.87;98072.20;123512;1103;64953;-82
2021/03/13 06:07:20;;;;;;;14.55;6.45;;;;;;;5.41;64.20;98069.56;123830;1102;64914;-82
2021/03/13 06:09:55;;;;;;;15.17;6.63;;;;;;;5.41;63.96;98074.84;123871;1102;65020;-84
2021/03/13 06:12:23;;;;;;;8.93;4.97;;;;;;;5.44;63.86;98068.53;123868;1102;64934;-83
2021/03/13 06:14:51;;;;;;;15.37;6.47;;;;;;;5.45;63.74;98070.22;123478;1102;64873;-84
2021/03/13 06:17:18;;;;;;;19.80;7.37;;;;;;;5.46;63.78;98072.78;123442;1102;65371;-83
2021/03/13 06:19:50;;;;;;;21.20;8.37;;;;;;;5.46;63.58;98070.14;123411;1102;64956;-82
2021/03/13 06:22:42;;;;;;;14.00;6.83;;;;;;;5.47;64.05;98063.89;123458;1102;65043;-82
2021/03/13 06:25:25;;;;;;;14.07;6.63;;;;;;;5.51;63.29;98067.22;123442;1102;65346;-82
2021/03/13 06:28:29;;;;;;;12.27;6.53;;;;;;;5.58;63.11;98055.34;123443;1102;65351;-83
2021/03/13 06:31:04;;;;;;;17.13;6.07;;;;;;;5.68;63.22;98052.95;123569;1102;64940;-80
2021/03/13 06:33:33;;;;;;;12.83;6.97;;;;;;;5.74;63.37;98055.23;123874;1102;64930;-80
2021/03/13 06:36:02;;;;;;;15.17;7.80;;;;;;;5.76;63.26;98045.39;123819;1102;65075;-82
2021/03/13 06:38:31;;;;;;;10.25;5.70;;;;;;;5.79;62.30;98063.70;123837;1101;64908;-80
2021/03/13 06:41:18;;;;;;;12.13;6.03;;;;;;;5.82;63.29;98075.88;123512;1102;64991;-81
2021/03/13 06:43:46;;;;;;;12.03;6.37;;;;;;;5.86;63.21;98080.05;123511;1102;64994;-82
2021/03/13 06:46:14;;;;;;;11.70;6.30;;;;;;;5.88;62.32;98083.45;123422;1102;64888;-91
2021/03/13 06:48:50;;;;;;;14.37;6.37;;;;;;;5.91;62.85;98084.09;123918;1104;64956;-84
2021/03/13 06:51:32;;;;;;;10.90;6.20;;;;;;;5.95;62.77;98090.09;123820;1101;64903;-83
2021/03/13 06:54:17;;;;;;;11.77;5.27;;;;;;;5.99;62.94;98104.81;123738;1102;64913;-84
2021/03/13 06:56:47;;;;;;;12.67;7.13;;;;;;;6.05;62.45;98099.12;123875;1102;64876;-84
2021/03/13 06:59:18;;;;;;;22.07;11.73;;;;;;;6.11;62.60;98111.98;123938;1102;64910;-84
2021/03/13 07:01:45;;;;;;;17.17;9.47;;;;;;;6.13;61.98;98110.09;123740;1102;64994;-88
2021/03/13 07:04:28;;;;;;;17.47;9.07;;;;;;;6.22;62.25;98121.05;123844;1105;64962;-84
2021/03/13 07:06:54;;;;;;;18.80;9.67;;;;;;;6.28;61.85;98121.48;123744;1102;65330;-84
2021/03/13 07:09:42;;;;;;;15.43;9.30;;;;;;;6.37;61.72;98122.69;123872;1102;64909;-85
2021/03/13 07:12:24;;;;;;;11.47;7.30;;;;;;;6.48;61.97;98119.38;124257;1102;64796;-84
2021/03/13 07:14:51;;;;;;;8.67;5.47;;;;;;;6.58;61.64;98118.69;124329;1102;64963;-84
2021/03/13 07:17:19;;;;;;;8.53;5.80;;;;;;;6.71;61.58;98117.87;124088;1102;65037;-83
2021/03/13 07:19:45;;;;;;;8.85;5.00;;;;;;;6.86;61.20;98116.88;123981;1102;64994;-83
2021/03/13 07:22:13;;;;;;;12.17;7.37;;;;;;;7.00;61.02;98126.55;123534;1105;64891;-83
2021/03/13 07:24:42;;;;;;;14.07;6.77;;;;;;;7.12;61.21;98111.65;124046;1102;64908;-84
2021/03/13 07:27:13;;;;;;;8.70;5.33;;;;;;;7.23;60.86;98123.21;124041;1102;64908;-83
2021/03/13 07:29:40;;;;;;;11.30;6.17;;;;;;;7.34;60.68;98114.53;123590;1102;64921;-82
2021/03/13 07:32:15;;;;;;;12.30;6.83;;;;;;;7.44;60.89;98126.21;123496;1102;64953;-82
2021/03/13 07:34:43;;;;;;;8.70;4.73;;;;;;;7.53;60.88;98130.06;123846;1102;64838;-84
2021/03/13 07:37:17;;;;;;;10.83;6.13;;;;;;;7.65;60.71;98126.55;123847;1102;64831;-83
2021/03/13 07:39:50;;;;;;;8.17;4.43;;;;;;;7.79;60.11;98127.39;123900;1102;65343;-84
2021/03/13 07:42:19;;;;;;;7.73;4.73;;;;;;;7.91;60.35;98138.00;123568;1102;64963;-83
2021/03/13 07:44:47;;;;;;;7.20;4.03;;;;;;;8.03;59.61;98125.70;123436;1102;64914;-83
2021/03/13 07:47:18;;;;;;;9.70;5.10;;;;;;;8.12;60.30;98129.49;123797;1102;64888;-83
2021/03/13 07:49:45;;;;;;;8.70;4.05;;;;;;;8.19;59.52;98128.11;123704;1102;64940;-83
2021/03/13 07:52:17;;;;;;;10.03;4.47;;;;;;;8.20;58.71;98113.88;123417;1102;64959;-82
2021/03/13 07:54:53;;;;;;;8.03;4.17;;;;;;;8.23;58.74;98118.95;123538;1102;64976;-84
2021/03/13 07:57:21;;;;;;;11.73;4.43;;;;;;;8.24;58.16;98133.06;123768;1102;64865;-84
2021/03/13 07:59:52;;;;;;;9.80;5.30;;;;;;;8.25;59.42;98132.13;123789;1102;64901;-84
2021/03/13 08:02:28;;;;;;;9.40;4.77;;;;;;;8.32;59.15;98136.02;123777;1102;64860;-84
2021/03/13 08:05:00;;;;;;;9.33;4.57;;;;;;;8.45;58.89;98141.34;123775;1102;64869;-83
2021/03/13 08:07:29;;;;;;;10.10;4.53;;;;;;;8.57;59.41;98143.12;123718;1102;64873;-83
2021/03/13 08:09:56;;;;;;;10.77;4.67;;;;;;;8.67;59.05;98137.99;123819;1102;64898;-83
2021/03/13 08:12:44;;;;;;;8.70;4.10;;;;;;;8.71;58.67;98140.29;123520;1103;64939;-83
2021/03/13 08:15:38;;;;;;;8.27;3.50;;;;;;;8.72;58.23;98134.04;123837;1102;64889;-83
2021/03/13 08:18:04;;;;;;;10.77;4.60;;;;;;;8.77;57.63;98131.05;123791;1102;65055;-84
2021/03/13 08:20:35;;;;;;;9.40;4.60;;;;;;;8.80;57.62;98128.16;123448;1102;64946;-84
2021/03/13 08:23:11;;;;;;;9.70;4.73;;;;;;;8.75;57.22;98132.97;123446;1102;64889;-83
2021/03/13 08:26:03;;;;;;;7.47;4.43;;;;;;;8.69;57.02;98128.95;123538;1102;64963;-84
2021/03/13 08:28:48;;;;;;;7.70;3.90;;;;;;;8.60;56.60;98140.23;123708;1103;64886;-84
2021/03/13 08:34:20;;;;;;;10.70;5.40;;;;;;;8.60;57.83;98137.58;124583;1102;64959;-84
2021/03/13 08:36:49;;;;;;;10.35;4.70;;;;;;;8.65;57.44;98155.84;124085;1102;64956;-82
2021/03/13 08:39:34;;;;;;;;;;;;;;;8.74;58.04;98140.09;123839;1102;64937;-84
2021/03/13 08:42:01;;;;;;;6.63;4.07;;;;;;;8.91;57.73;98141.50;123844;1102;64867;-84
2021/03/13 08:44:28;;;;;;;7.77;4.17;;;;;;;9.04;57.26;98146.76;123634;1102;64894;-84
2021/03/13 08:47:09;;;;;;;11.03;4.57;;;;;;;9.10;57.34;98148.11;123920;1102;64847;-82
2021/03/13 08:49:40;;;;;;;7.20;4.50;;;;;;;9.06;57.11;98139.52;123879;1102;64850;-82
2021/03/13 08:52:09;;;;;;;9.37;4.43;;;;;;;9.03;57.43;98137.10;124108;1102;64925;-82
2021/03/13 08:54:43;;;;;;;10.57;5.03;;;;;;;9.01;57.53;98139.02;123967;1102;64978;-83
2021/03/13 08:57:11;;;;;;;9.17;3.83;;;;;;;8.95;56.82;98142.11;123857;1102;65026;-83
2021/03/13 08:59:43;;;;;;;6.83;3.50;;;;;;;8.95;57.20;98137.66;123976;1102;64867;-83
2021/03/13 09:02:15;;;;;;;10.03;4.57;;;;;;;9.01;57.24;98153.15;123962;1102;64940;-84
2021/03/13 09:04:45;;;;;;;6.23;3.70;;;;;;;9.02;56.81;98148.67;123896;1102;64984;-84
2021/03/13 09:07:11;;;;;;;;;;;;;;;9.06;56.07;98150.16;123785;1102;64894;-85
2021/03/13 09:09:41;;;;;;;7.20;3.07;;;;;;;9.06;56.19;98155.47;124557;1102;64889;-83
2021/03/13 09:12:10;;;;;;;5.03;3.20;;;;;;;9.12;56.42;98136.40;124070;1102;64997;-82
2021/03/13 09:14:42;;;;;;;5.25;2.60;;;;;;;9.16;56.27;98147.64;123921;1102;64918;-83
2021/03/13 09:17:10;;;;;;;6.25;2.90;;;;;;;9.22;56.17;98140.06;123786;1102;64959;-83
2021/03/13 09:19:37;;;;;;;9.30;3.43;;;;;;;9.30;56.44;98135.99;123705;1102;64865;-83
2021/03/13 09:22:24;;;;;;;9.40;5.47;;;;;;;9.43;56.57;98136.75;123912;1102;65007;-83
2021/03/13 09:24:54;;;;;;;5.80;3.40;;;;;;;9.53;55.80;98136.88;123691;1103;64982;-84
2021/03/13 09:27:30;;;;;;;6.23;3.63;;;;;;;9.57;56.10;98133.87;123589;1102;65314;-84
2021/03/13 09:29:58;;;;;;;5.37;3.53;;;;;;;9.70;56.16;98127.63;123884;1102;64867;-84
2021/03/13 09:32:27;;;;;;;6.97;3.47;;;;;;;9.80;56.00;98118.80;123647;1102;64892;-84
2021/03/13 09:34:55;;;;;;;4.97;3.67;;;;;;;9.86;55.04;98117.48;123565;1102;65023;-84
2021/03/13 09:37:25;;;;;;;18.97;9.50;;;;;;;9.95;54.60;98130.05;123770;1102;64896;-84
2021/03/13 09:39:58;;;;;;;26.27;14.80;;;;;;;10.04;53.98;98117.86;123507;1105;64848;-80
2021/03/13 09:42:26;;;;;;;10.63;5.57;;;;;;;10.10;53.96;98118.20;123486;1102;64991;-84
2021/03/13 09:45:17;;;;;;;6.37;3.53;;;;;;;10.20;54.70;98113.00;123437;1102;64883;-84
2021/03/13 09:47:49;;;;;;;5.77;2.80;;;;;;;10.33;54.33;98113.75;123421;1102;64995;-85
2021/03/13 09:50:18;;;;;;;6.00;3.13;;;;;;;10.42;53.72;98104.16;123840;1102;64952;-83
2021/03/13 09:52:47;;;;;;;8.43;4.40;;;;;;;10.59;53.63;98107.30;123522;1102;64962;-83
2021/03/13 09:55:20;;;;;;;4.27;2.57;;;;;;;10.60;52.71;98108.98;123599;1102;64884;-84
2021/03/13 09:57:54;;;;;;;3.37;2.33;;;;;;;10.56;52.61;98095.08;123841;1102;64930;-84
2021/03/13 10:00:39;;;;;;;9.70;5.37;;;;;;;10.45;53.04;98105.73;123788;1102;64886;-85
2021/03/13 10:03:14;;;;;;;6.00;3.47;;;;;;;10.45;53.00;98098.62;123728;1102;64917;-84
2021/03/13 10:05:41;;;;;;;6.13;3.03;;;;;;;10.63;52.52;98092.75;123589;1105;64927;-84
2021/03/13 10:08:13;;;;;;;6.30;3.63;;;;;;;10.78;52.59;98091.49;123900;1102;65351;-85
2021/03/13 10:10:51;;;;;;;7.10;3.80;;;;;;;10.88;51.46;98091.59;123610;1102;64924;-85
2021/03/13 10:13:18;;;;;;;5.15;3.25;;;;;;;10.86;51.39;98088.20;123528;1102;64918;-84
2021/03/13 10:15:45;;;;;;;4.55;2.85;;;;;;;10.72;51.28;98084.02;123573;1103;64834;-85
2021/03/13 10:18:25;;;;;;;6.17;2.87;;;;;;;10.84;52.94;98077.66;123790;1102;65924;-83
2021/03/13 10:20:54;;;;;;;5.20;2.70;;;;;;;11.04;52.67;98077.83;123781;1102;64847;-81
2021/03/13 10:23:22;;;;;;;4.73;3.30;;;;;;;11.11;52.19;98073.66;123702;1102;64864;-81
2021/03/13 10:26:13;;;;;;;5.70;2.90;;;;;;;11.19;52.32;98060.55;123695;1102;64917;-81
2021/03/13 10:28:43;;;;;;;4.67;2.77;;;;;;;11.32;52.42;98068.34;123737;1102;65004;-80
2021/03/13 10:31:11;;;;;;;;;;;;;;;11.37;52.51;98060.78;123713;1102;64860;-81
2021/03/13 10:33:42;;;;;;;4.80;2.83;;;;;;;11.47;52.56;98077.70;123690;1102;64827;-79
2021/03/13 10:36:10;;;;;;;3.47;2.67;;;;;;;11.48;51.12;98058.07;123498;1102;64930;-81
2021/03/13 10:38:41;;;;;;;6.50;3.40;;;;;;;11.49;51.56;98058.91;123661;1102;64979;-81
2021/03/13 10:41:10;;;;;;;3.20;2.40;;;;;;;11.51;51.07;98062.30;123741;1102;64828;-81
2021/03/13 10:43:42;;;;;;;3.90;2.67;;;;;;;11.51;51.72;98040.95;123742;1102;64876;-81
2021/03/13 10:46:17;;;;;;;4.93;2.50;;;;;;;11.57;51.49;98048.42;123851;1102;64902;-81
2021/03/13 10:48:43;;;;;;;4.53;2.70;;;;;;;11.56;51.11;98038.73;123738;1102;64885;-81
2021/03/13 10:51:19;;;;;;;6.07;3.47;;;;;;;11.64;51.41;98049.59;123676;1102;64854;-81
2021/03/13 10:53:46;;;;;;;4.55;2.95;;;;;;;11.64;50.03;98039.75;123701;1102;65026;-82
2021/03/13 10:56:14;;;;;;;5.15;2.50;;;;;;;11.60;50.66;98035.64;123568;1102;64950;-81
2021/03/13 10:58:46;;;;;;;;;;;;;;;11.58;49.03;98034.09;123411;1102;64984;-81
2021/03/13 11:01:13;;;;;;;;;;;;;;;11.57;49.38;98027.08;123663;1102;64944;-81
2021/03/13 11:03:43;;;;;;;5.80;3.20;;;;;;;11.70;50.40;98019.69;123362;1102;65007;-81
2021/03/13 11:06:10;;;;;;;;;;;;;;;11.80;51.27;98014.41;123740;1102;64978;-81
2021/03/13 11:08:38;;;;;;;6.03;3.33;;;;;;;11.93;50.04;98019.52;123702;1102;65288;-82
2021/03/13 11:11:05;;;;;;;4.90;3.40;;;;;;;12.04;49.65;97998.91;123413;1102;64969;-82
2021/03/13 11:13:31;;;;;;;4.20;2.97;;;;;;;12.12;48.96;98008.91;123512;1104;64860;-91
2021/03/13 11:15:58;;;;;;;5.67;2.87;;;;;;;12.20;49.23;98000.22;123456;1102;64950;-81
2021/03/13 11:18:24;;;;;;;5.67;2.90;;;;;;;12.33;49.83;98000.80;123687;1102;64862;-82
2021/03/13 11:20:52;;;;;;;5.20;3.85;;;;;;;12.38;49.01;97992.38;123506;1102;65007;-82
2021/03/13 11:23:20;;;;;;;4.87;2.60;;;;;;;12.25;46.98;97988.13;123782;1102;64853;-81
2021/03/13 11:25:47;;;;;;;5.90;2.90;;;;;;;12.18;48.22;97996.83;123282;1102;64927;-82
2021/03/13 11:28:14;;;;;;;5.97;2.90;;;;;;;12.12;47.90;97976.86;123687;1102;64854;-80
2021/03/13 11:30:40;;;;;;;6.47;3.80;;;;;;;12.11;48.30;97980.49;123636;1102;64895;-82
2021/03/13 11:33:07;;;;;;;4.93;2.90;;;;;;;12.06;47.95;97972.92;123755;1102;64882;-80
2021/03/13 11:35:33;;;;;;;4.30;2.53;;;;;;;12.01;47.40;97980.49;123758;1102;64893;-82
2021/03/13 11:38:00;;;;;;;5.40;2.50;;;;;;;12.04;46.87;97966.02;123772;1102;64885;-81
2021/03/13 11:40:26;;;;;;;5.55;3.30;;;;;;;12.12;48.20;97962.67;123447;1102;64985;-82
2021/03/13 11:42:55;;;;;;;4.70;3.00;;;;;;;12.22;48.74;97963.53;123386;1103;64962;-81